Time;durP1;ratioP1;P1;durP2;ratioP2;P2;SDS_P1;SDS_P2;PMS_P1;PMS_P2;Temp;Humidity;BMP_temperature;BMP_pressure;BME280_temperature;BME280_humidity;BME280_pressure;Samples;Min_cycle;Max_cycle;Signal;HPM_P1;HPM_P2
2022/03/04 00:02:06;;;;;;;12.53;11.33;;;;;;;21.20;25.01;94697.28;6161018;28;104394;-55
2022/03/04 00:05:14;;;;;;;11.97;11.07;;;;;;;21.19;24.99;94692.28;6161561;28;104454;-55
2022/03/04 00:08:16;;;;;;;11.27;10.37;;;;;;;21.19;25.01;94695.72;6156156;28;104188;-54
2022/03/04 00:11:18;;;;;;;12.43;11.13;;;;;;;21.18;25.00;94704.00;6160532;28;102872;-55
2022/03/04 00:14:20;;;;;;;11.53;10.53;;;;;;;21.17;25.09;94702.41;6160796;28;103993;-54
2022/03/04 00:17:22;;;;;;;11.97;10.93;;;;;;;21.18;24.82;94699.47;6160374;28;103128;-55
2022/03/04 00:20:24;;;;;;;14.40;13.20;;;;;;;21.17;24.99;94697.09;6156941;28;104401;-54
2022/03/04 00:23:26;;;;;;;13.03;11.93;;;;;;;21.16;24.85;94693.63;6160722;28;104020;-55
2022/03/04 00:26:29;;;;;;;12.80;11.70;;;;;;;21.16;24.94;94693.63;6159141;28;103514;-54
2022/03/04 00:29:31;;;;;;;13.10;12.00;;;;;;;21.16;24.86;94698.94;6159610;28;103084;-54
2022/03/04 00:32:35;;;;;;;13.23;12.10;;;;;;;21.15;24.94;94696.59;6153143;28;103094;-54
2022/03/04 00:35:37;;;;;;;12.03;11.03;;;;;;;21.15;24.89;94697.38;6157680;28;103164;-54
2022/03/04 00:38:38;;;;;;;12.07;11.07;;;;;;;21.14;24.87;94685.19;6167318;28;103131;-54
2022/03/04 00:41:40;;;;;;;12.20;11.20;;;;;;;21.16;24.93;94688.31;6178821;28;103961;-54
2022/03/04 00:44:42;;;;;;;11.53;10.50;;;;;;;21.13;24.87;94682.84;6183902;28;103758;-54
2022/03/04 00:47:44;;;;;;;11.23;10.33;;;;;;;21.13;24.96;94680.97;6182379;28;103350;-54
2022/03/04 00:50:46;;;;;;;11.43;10.43;;;;;;;21.13;24.82;94674.88;6183570;28;102926;-54
2022/03/04 00:53:48;;;;;;;10.93;10.10;;;;;;;21.13;24.94;94683.63;6178477;28;104110;-54
2022/03/04 00:56:50;;;;;;;12.10;11.10;;;;;;;21.13;24.93;94683.63;6183378;28;103294;-54
2022/03/04 00:59:51;;;;;;;12.10;11.10;;;;;;;21.14;24.82;94676.44;6183360;28;102950;-54
2022/03/04 01:02:53;;;;;;;11.57;10.67;;;;;;;21.11;25.01;94674.38;6182306;28;104104;-54
2022/03/04 01:05:55;;;;;;;11.97;10.97;;;;;;;21.12;24.74;94681.28;6179977;28;103584;-54
2022/03/04 01:08:57;;;;;;;11.00;10.10;;;;;;;21.11;24.87;94675.16;6182072;28;102998;-54
2022/03/04 01:11:59;;;;;;;10.97;10.03;;;;;;;21.11;24.79;94674.38;6165893;28;104033;-54
2022/03/04 01:15:02;;;;;;;11.77;10.77;;;;;;;21.10;24.92;94665.63;6177988;28;103135;-54
2022/03/04 01:18:04;;;;;;;10.57;9.67;;;;;;;21.10;25.10;94665.63;6182791;28;103308;-55
2022/03/04 01:21:06;;;;;;;10.43;9.63;;;;;;;21.11;24.83;94663.75;6183074;28;103703;-54
2022/03/04 01:24:08;;;;;;;10.60;9.70;;;;;;;21.08;24.65;94659.84;6182983;28;104384;-54
2022/03/04 01:27:12;;;;;;;10.40;9.50;;;;;;;21.09;24.74;94655.31;6177620;28;103007;-55
2022/03/04 01:30:14;;;;;;;10.30;9.40;;;;;;;21.10;24.76;94654.22;6165089;28;103458;-55
2022/03/04 01:33:16;;;;;;;9.70;8.90;;;;;;;21.10;24.62;94651.56;6182814;28;105050;-54
2022/03/04 01:36:18;;;;;;;10.30;9.60;;;;;;;21.08;24.77;94648.44;6178347;28;104466;-54
2022/03/04 01:39:20;;;;;;;10.10;9.30;;;;;;;21.08;24.67;94649.22;6167114;28;103122;-55
2022/03/04 01:42:22;;;;;;;9.63;8.83;;;;;;;21.07;24.80;94660.94;6158380;28;104161;-55
2022/03/04 01:45:24;;;;;;;10.10;9.30;;;;;;;21.05;24.99;94655.13;6140582;28;103946;-54
2022/03/04 01:48:26;;;;;;;9.20;8.50;;;;;;;21.07;24.72;94650.31;6155983;28;104114;-55
2022/03/04 01:51:28;;;;;;;9.17;8.47;;;;;;;21.07;25.04;94649.53;6162096;28;103254;-55
2022/03/04 01:54:29;;;;;;;9.63;8.83;;;;;;;21.04;24.80;94648.25;6162163;28;103951;-54
2022/03/04 01:57:31;;;;;;;9.60;8.83;;;;;;;21.04;24.61;94642.94;6162368;28;102988;-55
2022/03/04 02:00:33;;;;;;;10.43;9.53;;;;;;;21.06;24.63;94640.78;6157067;28;103005;-55
2022/03/04 02:03:35;;;;;;;9.63;8.83;;;;;;;21.02;24.79;94634.50;6162549;28;104083;-54
2022/03/04 02:06:37;;;;;;;10.73;9.83;;;;;;;21.02;24.71;94637.94;6162460;28;103661;-55
2022/03/04 02:09:39;;;;;;;10.03;9.13;;;;;;;21.02;24.72;94629.97;6156381;28;104532;-55
2022/03/04 02:12:41;;;;;;;10.27;9.47;;;;;;;21.04;24.83;94629.66;6162099;28;103948;-55
2022/03/04 02:15:44;;;;;;;9.60;8.80;;;;;;;21.04;24.68;94624.34;6161536;28;103600;-55
2022/03/04 02:18:46;;;;;;;9.60;8.80;;;;;;;21.02;24.71;94626.53;6161767;28;103356;-55
2022/03/04 02:22:00;;;;;;;9.73;8.93;;;;;;;21.00;24.67;94628.72;6156363;28;104218;-55
2022/03/04 02:25:05;;;;;;;9.23;8.50;;;;;;;21.01;24.51;94622.31;6162110;28;103212;-55
2022/03/04 02:28:07;;;;;;;10.27;9.37;;;;;;;21.00;24.55;94626.06;6161509;28;103038;-55
2022/03/04 02:31:12;;;;;;;9.10;8.40;;;;;;;21.00;24.76;94629.50;6139823;28;104132;-55
2022/03/04 02:34:14;;;;;;;9.93;9.10;;;;;;;21.02;24.57;94615.91;6160941;28;103333;-55
2022/03/04 02:37:18;;;;;;;10.10;9.20;;;;;;;21.01;24.58;94631.06;6161056;28;103005;-54
2022/03/04 02:40:20;;;;;;;10.07;9.27;;;;;;;21.01;24.57;94635.59;6183750;28;104272;-54
2022/03/04 02:43:22;;;;;;;9.00;8.30;;;;;;;21.01;24.57;94623.09;6181558;28;103012;-54
2022/03/04 02:46:23;;;;;;;10.87;9.97;;;;;;;21.01;24.70;94627.63;6185685;28;103019;-54
2022/03/04 02:49:25;;;;;;;8.63;8.03;;;;;;;20.99;24.69;94632.44;6185735;28;103096;-54
2022/03/04 02:52:27;;;;;;;9.03;8.33;;;;;;;21.01;24.54;94624.97;6185620;28;103099;-54
2022/03/04 02:55:29;;;;;;;9.40;8.50;;;;;;;20.99;24.59;94621.81;6180456;28;103188;-55
2022/03/04 02:58:31;;;;;;;9.20;8.50;;;;;;;20.99;24.70;94624.47;6184465;28;103147;-54
2022/03/04 03:01:35;;;;;;;9.80;9.00;;;;;;;20.98;24.49;94623.69;6185479;28;103048;-54
2022/03/04 03:04:37;;;;;;;9.07;8.37;;;;;;;20.98;24.40;94625.53;6164014;28;104102;-55
2022/03/04 03:07:40;;;;;;;9.70;9.00;;;;;;;20.98;24.50;94628.19;6185517;28;103193;-55
2022/03/04 03:10:42;;;;;;;8.33;7.63;;;;;;;20.99;24.74;94622.59;6185093;28;104368;-55
2022/03/04 03:13:44;;;;;;;10.07;9.17;;;;;;;20.98;24.63;94621.03;6184860;28;103021;-55
2022/03/04 03:16:46;;;;;;;8.80;8.10;;;;;;;20.96;24.84;94625.84;6180457;28;102699;-54
2022/03/04 03:19:47;;;;;;;9.13;8.33;;;;;;;20.96;24.63;94625.06;6186723;28;103061;-54
2022/03/04 03:22:49;;;;;;;9.97;9.07;;;;;;;20.96;24.71;94625.06;6185768;28;104130;-54
2022/03/04 03:25:51;;;;;;;9.07;8.37;;;;;;;20.94;24.82;94621.94;6186479;28;104072;-54
2022/03/04 03:28:53;;;;;;;8.83;8.13;;;;;;;20.95;24.60;94623.50;6180296;28;103174;-54
2022/03/04 03:31:55;;;;;;;9.27;8.50;;;;;;;20.95;24.57;94626.94;6186429;28;103138;-54
2022/03/04 03:34:57;;;;;;;9.43;8.73;;;;;;;20.96;24.83;94627.72;6168805;28;103593;-55
2022/03/04 03:38:00;;;;;;;9.67;8.87;;;;;;;20.94;24.47;94635.22;6176432;28;103148;-55
2022/03/04 03:41:02;;;;;;;10.03;9.23;;;;;;;20.94;24.54;94624.59;6159699;28;103040;-55
2022/03/04 03:44:14;;;;;;;10.50;9.60;;;;;;;20.95;24.72;94639.44;6160911;28;104268;-55
2022/03/04 03:47:16;;;;;;;10.33;9.53;;;;;;;20.93;24.59;94636.28;6161263;28;102988;-56
2022/03/04 03:50:17;;;;;;;10.63;9.83;;;;;;;20.93;24.60;94638.94;6156098;28;103991;-55
2022/03/04 03:53:19;;;;;;;11.13;10.13;;;;;;;20.91;24.76;94633.16;6159946;28;103035;-55
2022/03/04 03:56:21;;;;;;;11.30;10.10;;;;;;;20.93;24.71;94636.28;6160361;28;104015;-56
2022/03/04 03:59:23;;;;;;;11.10;10.20;;;;;;;20.91;24.73;94625.19;6154229;28;103116;-55
2022/03/04 04:02:26;;;;;;;11.70;10.70;;;;;;;20.93;24.54;94633.63;6160058;28;103458;-55
2022/03/04 04:05:28;;;;;;;11.53;10.53;;;;;;;20.92;24.65;94632.06;6160353;28;103269;-55
2022/03/04 04:08:30;;;;;;;11.90;10.90;;;;;;;20.93;24.59;94641.59;6160126;28;102678;-56
2022/03/04 04:11:35;;;;;;;11.63;10.63;;;;;;;20.89;24.66;94627.38;6153874;28;103080;-55
2022/03/04 04:14:36;;;;;;;12.87;11.67;;;;;;;20.90;24.69;94635.03;6159878;28;103036;-56
2022/03/04 04:17:38;;;;;;;12.73;11.63;;;;;;;20.89;24.53;94635.34;6160065;28;103191;-55
2022/03/04 04:20:40;;;;;;;12.50;11.40;;;;;;;20.90;24.77;94632.38;6160076;28;104027;-56
2022/03/04 04:23:42;;;;;;;12.90;11.80;;;;;;;20.87;24.63;94637.50;6154847;28;104041;-55
2022/03/04 04:26:45;;;;;;;11.80;10.80;;;;;;;20.88;24.51;94633.78;6159727;28;103798;-55
2022/03/04 04:29:47;;;;;;;12.57;11.57;;;;;;;20.86;24.59;94639.38;6160131;28;103244;-55
2022/03/04 04:32:52;;;;;;;12.63;11.43;;;;;;;20.86;24.53;94642.03;6154203;28;104077;-55
2022/03/04 04:35:54;;;;;;;12.37;11.37;;;;;;;20.88;24.42;94641.72;6159571;28;103480;-54
2022/03/04 04:38:56;;;;;;;10.93;10.03;;;;;;;20.85;24.68;94645.00;6170667;28;103320;-56
2022/03/04 04:41:58;;;;;;;11.93;10.93;;;;;;;20.87;24.44;94653.44;6183491;28;103030;-56
2022/03/04 04:45:00;;;;;;;11.23;10.33;;;;;;;20.86;24.50;94649.22;6178573;28;104149;-56
2022/03/04 04:48:02;;;;;;;11.33;10.43;;;;;;;20.87;24.50;94658.75;6183944;28;103833;-57
2022/03/04 04:51:04;;;;;;;11.33;10.43;;;;;;;20.84;24.44;94660.16;6165114;28;103141;-56
2022/03/04 04:54:11;;;;;;;10.63;9.73;;;;;;;20.84;24.62;94667.31;6178444;28;102929;-55
2022/03/04 04:57:12;;;;;;;11.00;10.10;;;;;;;20.85;24.61;94660.94;6182347;28;104125;-55
2022/03/04 05:00:15;;;;;;;10.57;9.77;;;;;;;20.84;24.55;94670.75;6182356;28;102957;-57
2022/03/04 05:03:17;;;;;;;11.57;10.47;;;;;;;20.85;24.61;94674.19;6183219;28;104145;-55
2022/03/04 05:06:19;;;;;;;11.10;10.23;;;;;;;20.83;24.38;94668.41;6177486;28;103346;-56
2022/03/04 05:09:21;;;;;;;10.83;9.93;;;;;;;20.84;24.54;94672.63;6182916;28;104311;-55
2022/03/04 05:12:23;;;;;;;9.97;9.23;;;;;;;20.82;24.54;94666.81;6181583;28;103038;-56
2022/03/04 05:15:24;;;;;;;11.13;10.23;;;;;;;20.83;24.60;94668.41;6182631;28;104545;-56
2022/03/04 05:18:26;;;;;;;10.50;9.60;;;;;;;20.82;24.58;94672.13;6177442;28;103111;-56
2022/03/04 05:21:29;;;;;;;10.67;9.57;;;;;;;20.83;24.46;94674.50;6181248;28;103333;-56
2022/03/04 05:24:30;;;;;;;10.80;10.00;;;;;;;20.83;24.46;94674.50;6182366;28;103030;-55
2022/03/04 05:27:32;;;;;;;10.00;9.10;;;;;;;20.84;24.44;94676.06;6176513;28;103038;-56
2022/03/04 05:30:35;;;;;;;10.23;9.43;;;;;;;20.82;24.53;94667.59;6182373;28;104242;-56
2022/03/04 05:33:37;;;;;;;10.60;9.70;;;;;;;20.82;24.38;94664.16;6181866;28;103073;-56
2022/03/04 05:36:39;;;;;;;10.43;9.53;;;;;;;20.81;24.31;94668.69;6181780;28;103009;-56
2022/03/04 05:39:40;;;;;;;9.90;9.10;;;;;;;20.81;24.43;94670.56;6158577;28;104468;-56
2022/03/04 05:42:42;;;;;;;10.50;9.60;;;;;;;20.80;24.48;94674.28;6180975;28;103164;-55
2022/03/04 05:45:44;;;;;;;10.67;9.87;;;;;;;20.81;24.48;94671.34;6182388;28;102984;-56
2022/03/04 05:48:46;;;;;;;10.77;9.93;;;;;;;20.81;24.46;94671.34;6182325;28;102994;-56
2022/03/04 05:51:48;;;;;;;10.50;9.60;;;;;;;20.82;24.45;94677.44;6158850;28;102768;-56
2022/03/04 05:54:49;;;;;;;12.00;11.00;;;;;;;20.82;24.66;94674.78;6182082;28;104139;-56
2022/03/04 05:57:51;;;;;;;11.53;10.53;;;;;;;20.83;24.29;94679.81;6181950;28;103030;-56
2022/03/04 06:00:53;;;;;;;11.13;10.23;;;;;;;20.82;24.34;94672.13;6177200;28;103921;-56
2022/03/04 06:03:55;;;;;;;11.17;10.17;;;;;;;20.82;24.54;94672.13;6181911;28;103975;-56
2022/03/04 06:06:57;;;;;;;11.40;10.50;;;;;;;20.85;24.19;94674.19;6183040;28;103627;-57
2022/03/04 06:09:59;;;;;;;12.07;11.17;;;;;;;20.86;24.37;94673.13;6182065;28;103433;-56
2022/03/04 06:13:00;;;;;;;12.27;11.23;;;;;;;20.87;24.39;94680.00;6175677;28;104305;-56
2022/03/04 06:16:03;;;;;;;10.90;10.00;;;;;;;20.86;24.34;94678.44;6182095;28;103041;-56
2022/03/04 06:19:05;;;;;;;11.60;10.60;;;;;;;20.88;24.34;94674.38;6181697;28;103756;-56
2022/03/04 06:22:07;;;;;;;12.43;11.33;;;;;;;20.92;24.37;94671.91;6181928;28;103271;-55
2022/03/04 06:25:10;;;;;;;12.27;11.07;;;;;;;20.93;24.28;94682.22;6176000;28;104228;-56
2022/03/04 06:28:12;;;;;;;13.87;12.57;;;;;;;21.01;24.22;94672.78;6181269;28;104161;-56
2022/03/04 06:31:13;;;;;;;12.90;11.80;;;;;;;21.01;24.36;94678.09;6182136;28;103278;-57
2022/03/04 06:34:15;;;;;;;12.50;11.40;;;;;;;21.02;24.11;94677.78;6129632;28;102987;-56
2022/03/04 06:37:17;;;;;;;12.47;11.47;;;;;;;21.05;24.55;94676.38;6137398;28;104188;-55
2022/03/04 06:40:19;;;;;;;12.50;11.50;;;;;;;21.07;24.35;94678.75;6114847;28;103648;-55
2022/03/04 06:43:21;;;;;;;14.20;13.10;;;;;;;21.11;24.38;94675.16;6111981;28;103185;-56
2022/03/04 06:46:23;;;;;;;12.83;11.77;;;;;;;21.11;24.41;94682.34;6107455;28;102780;-55
2022/03/04 06:49:25;;;;;;;13.00;11.90;;;;;;;21.11;24.56;94691.09;6112543;28;104016;-56
2022/03/04 06:52:26;;;;;;;13.60;12.40;;;;;;;21.11;24.25;94691.09;6112357;28;103020;-54
2022/03/04 06:55:29;;;;;;;14.10;12.90;;;;;;;21.09;24.51;94687.97;6106157;28;103832;-55
2022/03/04 06:58:31;;;;;;;12.90;11.80;;;;;;;21.09;24.41;94693.28;6112020;28;103018;-56
2022/03/04 07:01:33;;;;;;;13.43;12.33;;;;;;;21.10;24.40;94702.03;6112133;28;103044;-55
2022/03/04 07:04:35;;;;;;;13.27;12.17;;;;;;;21.09;24.50;94708.44;6111953;28;103153;-56
2022/03/04 07:07:37;;;;;;;14.13;13.03;;;;;;;21.05;24.45;94702.94;6107644;28;104530;-56
2022/03/04 07:10:40;;;;;;;14.73;13.37;;;;;;;21.06;24.54;94709.81;6112429;28;104016;-55
2022/03/04 07:13:42;;;;;;;14.90;13.70;;;;;;;21.08;24.44;94712.19;6111552;28;103374;-56
2022/03/04 07:16:43;;;;;;;14.73;13.53;;;;;;;21.05;24.55;94716.22;6112310;28;103195;-56
2022/03/04 07:19:45;;;;;;;15.57;14.30;;;;;;;21.04;24.36;94717.31;6106680;28;103251;-56
2022/03/04 07:22:47;;;;;;;15.83;14.53;;;;;;;21.06;24.50;94709.81;6112303;28;103725;-56
2022/03/04 07:25:49;;;;;;;15.70;14.40;;;;;;;21.07;24.55;94716.72;6111061;28;103375;-56
2022/03/04 07:28:51;;;;;;;17.50;16.00;;;;;;;21.08;24.46;94720.16;6107025;28;104052;-56
2022/03/04 07:31:54;;;;;;;17.33;15.77;;;;;;;21.10;24.38;94721.41;6121822;28;103007;-56
2022/03/04 07:34:56;;;;;;;16.03;14.57;;;;;;;21.13;24.82;94718.16;6160435;28;103997;-56
2022/03/04 07:37:58;;;;;;;17.90;16.30;;;;;;;21.16;24.49;94722.84;6163231;28;103660;-56
2022/03/04 07:41:00;;;;;;;18.77;17.13;;;;;;;21.19;24.38;94724.16;6178422;28;103229;-56
2022/03/04 07:44:02;;;;;;;17.03;15.53;;;;;;;21.20;24.46;94720.41;6183748;28;103040;-55
2022/03/04 07:47:04;;;;;;;17.43;15.83;;;;;;;21.21;24.37;94722.75;6184476;28;103960;-55
2022/03/04 07:50:10;;;;;;;17.90;16.40;;;;;;;21.24;24.37;94718.72;6184338;28;103973;-55
2022/03/04 07:53:12;;;;;;;16.83;15.43;;;;;;;21.25;24.33;94722.97;6179349;28;104178;-55
2022/03/04 07:56:14;;;;;;;17.90;16.40;;;;;;;21.25;24.41;94720.31;6183613;28;103049;-55
2022/03/04 07:59:15;;;;;;;17.83;16.23;;;;;;;21.25;24.32;94718.44;6184406;28;103700;-56
2022/03/04 08:02:17;;;;;;;17.13;15.63;;;;;;;21.23;24.38;94719.81;6178111;28;103385;-55
2022/03/04 08:05:21;;;;;;;18.10;16.50;;;;;;;21.23;24.52;94717.94;6184265;28;104229;-55
2022/03/04 08:08:22;;;;;;;18.30;16.70;;;;;;;21.22;24.36;94708.41;6184197;28;104409;-56
2022/03/04 08:11:24;;;;;;;18.27;16.63;;;;;;;21.24;24.57;94716.06;6183609;28;103173;-55
2022/03/04 08:14:26;;;;;;;17.00;15.60;;;;;;;21.25;24.34;94713.13;6178372;28;104382;-55
2022/03/04 08:17:30;;;;;;;18.13;16.37;;;;;;;21.25;24.32;94715.00;6183732;28;104198;-55
2022/03/04 08:20:33;;;;;;;18.73;17.20;;;;;;;21.25;24.26;94713.13;6184336;28;104042;-55
2022/03/04 08:23:35;;;;;;;17.60;16.10;;;;;;;21.27;24.21;94708.28;6178866;28;104106;-56
2022/03/04 08:26:38;;;;;;;19.30;17.50;;;;;;;21.26;24.60;94709.38;6182761;28;103012;-56
2022/03/04 08:29:40;;;;;;;19.60;17.63;;;;;;;21.31;24.27;94719.88;6165657;28;103111;-56
2022/03/04 08:32:42;;;;;;;18.43;16.83;;;;;;;21.31;24.30;94719.09;6183505;28;103426;-58
2022/03/04 08:35:44;;;;;;;18.50;16.80;;;;;;;21.30;24.27;94718.31;6178219;28;103353;-56
2022/03/04 08:38:47;;;;;;;17.00;15.70;;;;;;;21.31;24.22;94719.88;6173692;28;103349;-56
2022/03/04 08:41:49;;;;;;;17.03;15.63;;;;;;;21.32;24.50;94723.31;6159203;28;102972;-56
2022/03/04 08:44:52;;;;;;;17.53;15.80;;;;;;;21.34;24.38;94720.41;6158425;28;104016;-56
2022/03/04 08:47:54;;;;;;;17.23;15.80;;;;;;;21.37;24.21;94725.09;6153572;28;105723;-55
2022/03/04 08:50:56;;;;;;;16.30;15.00;;;;;;;21.42;24.00;94725.75;6158941;28;103011;-55
2022/03/04 08:53:58;;;;;;;17.20;15.73;;;;;;;21.44;24.26;94728.88;6158033;28;103218;-55
2022/03/04 08:57:00;;;;;;;16.60;15.20;;;;;;;21.46;24.27;94724.06;6152797;28;103160;-55
2022/03/04 09:00:03;;;;;;;18.23;16.73;;;;;;;21.47;24.16;94722.19;6158961;28;103115;-56
2022/03/04 09:03:04;;;;;;;16.50;15.00;;;;;;;21.50;24.17;94724.22;6158857;28;104257;-56
2022/03/04 09:06:07;;;;;;;17.10;15.50;;;;;;;21.51;24.27;94720.50;6158322;28;103191;-56
2022/03/04 09:09:09;;;;;;;16.67;15.37;;;;;;;21.54;24.21;94717.25;6152991;28;103424;-56
2022/03/04 09:12:11;;;;;;;17.93;16.30;;;;;;;21.54;24.08;94718.03;6158484;28;103116;-55
2022/03/04 09:15:13;;;;;;;17.80;16.10;;;;;;;21.52;24.17;94716.75;6158008;28;104112;-55
2022/03/04 09:18:14;;;;;;;17.00;15.63;;;;;;;21.56;24.32;94723.03;6158086;28;103964;-55
2022/03/04 09:21:16;;;;;;;17.50;16.00;;;;;;;21.59;24.35;94727.75;6153167;28;104067;-56
2022/03/04 09:24:18;;;;;;;16.37;14.97;;;;;;;21.61;24.25;94728.22;6158110;28;102997;-55
2022/03/04 09:27:19;;;;;;;16.57;15.17;;;;;;;21.63;24.31;94721.50;6158014;28;102988;-56
2022/03/04 09:30:21;;;;;;;17.67;16.10;;;;;;;21.64;24.08;94724.94;6152425;28;103009;-55
2022/03/04 09:33:23;;;;;;;16.77;15.37;;;;;;;21.65;24.30;94721.19;6156930;28;103103;-56
2022/03/04 09:36:25;;;;;;;17.17;15.73;;;;;;;21.67;24.08;94728.88;6158215;28;103238;-55
2022/03/04 09:39:27;;;;;;;16.43;14.93;;;;;;;21.68;24.14;94727.81;6173279;28;103330;-56
2022/03/04 09:42:31;;;;;;;16.30;14.90;;;;;;;21.72;24.04;94720.78;6176863;28;103071;-55
2022/03/04 09:45:34;;;;;;;16.80;15.40;;;;;;;21.73;23.89;94720.47;6181748;28;103047;-55
2022/03/04 09:48:40;;;;;;;17.73;16.20;;;;;;;21.75;23.86;94726.28;6182000;28;102919;-56
2022/03/04 09:51:42;;;;;;;16.63;15.23;;;;;;;21.79;23.88;94716.59;6160098;28;103022;-56
2022/03/04 09:54:49;;;;;;;16.33;14.90;;;;;;;21.82;24.04;94717.84;6181995;28;104131;-56
2022/03/04 09:57:51;;;;;;;16.50;15.20;;;;;;;21.83;24.02;94717.53;6182745;28;103372;-55
2022/03/04 10:00:52;;;;;;;15.90;14.43;;;;;;;21.86;23.74;94719.63;6181791;28;102951;-54
2022/03/04 10:03:55;;;;;;;16.60;15.20;;;;;;;21.85;23.99;94715.38;6176516;28;103181;-55
2022/03/04 10:06:57;;;;;;;16.50;14.90;;;;;;;21.88;23.88;94714.78;6182546;28;104861;-55
2022/03/04 10:10:00;;;;;;;16.13;14.73;;;;;;;21.89;23.82;94712.91;6185613;28;104048;-56
2022/03/04 10:13:02;;;;;;;16.70;15.30;;;;;;;21.90;24.04;94709.94;6186552;28;103968;-55
2022/03/04 10:16:04;;;;;;;16.47;15.17;;;;;;;21.94;24.01;94702.13;6179568;28;103136;-55
2022/03/04 10:19:07;;;;;;;15.37;14.10;;;;;;;21.94;23.80;94699.47;6185808;28;103676;-56
2022/03/04 10:22:09;;;;;;;15.93;14.63;;;;;;;21.96;23.82;94707.91;6186107;28;103818;-56
2022/03/04 10:25:22;;;;;;;16.13;14.70;;;;;;;21.97;23.99;94698.84;6179501;28;103215;-55
2022/03/04 10:28:27;;;;;;;16.40;14.90;;;;;;;21.99;24.06;94694.00;6186099;28;103823;-55
2022/03/04 10:31:29;;;;;;;15.50;14.20;;;;;;;22.02;23.73;94696.06;6185282;28;104036;-55
2022/03/04 10:35:05;;;;;;;15.73;14.43;;;;;;;22.05;24.02;94694.69;6185899;28;103045;-55
2022/03/04 10:38:17;;;;;;;15.40;14.10;;;;;;;22.05;23.94;94689.38;6179416;28;103314;-56
2022/03/04 10:41:24;;;;;;;16.07;14.57;;;;;;;22.06;23.79;94682.97;6185667;28;103214;-55
2022/03/04 10:44:27;;;;;;;16.03;14.73;;;;;;;22.06;23.77;94672.31;6185393;28;103007;-56
2022/03/04 10:47:49;;;;;;;16.00;14.67;;;;;;;22.07;23.98;94671.22;6179635;28;104076;-55
2022/03/04 10:50:56;;;;;;;15.17;13.80;;;;;;;22.06;24.09;94665.13;6185663;28;103168;-56
2022/03/04 10:54:18;;;;;;;15.50;14.07;;;;;;;22.06;23.93;94659.03;6185093;28;103019;-55
2022/03/04 10:57:20;;;;;;;15.53;14.23;;;;;;;22.04;24.44;94650.53;6184860;28;103662;-56
2022/03/04 11:00:34;;;;;;;15.20;13.90;;;;;;;22.05;24.22;94655.56;6179229;28;103223;-56
2022/03/04 11:03:40;;;;;;;15.57;14.27;;;;;;;22.05;24.04;94644.94;6185383;28;104286;-56
2022/03/04 11:06:45;;;;;;;14.77;13.57;;;;;;;22.03;24.03;94641.78;6184913;28;102994;-56
2022/03/04 11:09:48;;;;;;;14.80;13.57;;;;;;;22.03;24.11;94639.09;6180294;28;105523;-56
2022/03/04 11:12:52;;;;;;;15.37;13.77;;;;;;;22.01;24.21;94635.19;6185439;28;103273;-55
2022/03/04 11:15:54;;;;;;;15.03;13.70;;;;;;;22.00;24.35;94630.94;6184599;28;103004;-55
2022/03/04 11:18:57;;;;;;;15.93;14.63;;;;;;;21.99;24.29;94624.06;6183763;28;103971;-56
2022/03/04 11:21:59;;;;;;;14.50;13.30;;;;;;;21.98;24.24;94625.94;6178493;28;103257;-56
2022/03/04 11:25:05;;;;;;;14.63;13.43;;;;;;;21.97;24.31;94619.03;6184812;28;103274;-57
2022/03/04 11:28:17;;;;;;;15.43;14.23;;;;;;;21.96;24.23;94606.84;6185086;28;103232;-56
2022/03/04 11:31:21;;;;;;;14.93;13.70;;;;;;;21.94;24.37;94614.34;6178118;28;103187;-56
2022/03/04 11:34:33;;;;;;;14.23;13.13;;;;;;;21.93;24.43;94615.44;6184790;28;103311;-55
2022/03/04 11:37:49;;;;;;;14.60;13.30;;;;;;;21.92;24.17;94603.22;6184183;28;104108;-56
2022/03/04 11:40:50;;;;;;;14.73;13.50;;;;;;;21.91;24.40;94593.69;6159931;28;103160;-56
2022/03/04 11:43:56;;;;;;;14.27;13.17;;;;;;;21.90;24.38;94594.78;6155325;28;104191;-56
2022/03/04 11:47:04;;;;;;;14.97;13.67;;;;;;;21.88;24.47;94589.78;6159233;28;103036;-56
2022/03/04 11:50:27;;;;;;;15.13;13.73;;;;;;;21.87;24.43;94590.09;6158184;28;103344;-55
2022/03/04 11:53:29;;;;;;;14.83;13.60;;;;;;;21.85;24.52;94587.75;6153539;28;103821;-56
2022/03/04 11:56:53;;;;;;;14.13;12.83;;;;;;;21.83;24.58;94586.44;6159592;28;104209;-56
2022/03/04 12:00:09;;;;;;;14.80;13.60;;;;;;;21.80;24.56;94579.88;6158667;28;103120;-55
2022/03/04 12:03:14;;;;;;;14.17;13.00;;;;;;;21.79;24.61;94588.94;6158800;28;103033;-55
2022/03/04 12:06:23;;;;;;;15.57;14.17;;;;;;;21.78;24.68;94584.72;6154444;28;103946;-56
2022/03/04 12:09:30;;;;;;;14.10;12.90;;;;;;;21.77;24.68;94580.50;6159162;28;103246;-57
2022/03/04 12:12:32;;;;;;;14.77;13.47;;;;;;;21.75;24.59;94576.59;6159401;28;104048;-55
2022/03/04 12:15:38;;;;;;;14.43;13.13;;;;;;;21.73;24.49;94570.81;6153231;28;103074;-56
2022/03/04 12:18:42;;;;;;;14.07;12.77;;;;;;;21.73;24.53;94568.13;6159401;28;102822;-55
2022/03/04 12:21:47;;;;;;;13.90;12.80;;;;;;;21.71;24.65;94567.66;6157541;28;103341;-55
2022/03/04 12:24:54;;;;;;;13.30;12.07;;;;;;;21.71;24.87;94563.13;6159583;28;103972;-55
2022/03/04 12:27:56;;;;;;;14.70;13.40;;;;;;;21.70;24.80;94560.78;6153204;28;103020;-55
2022/03/04 12:31:00;;;;;;;13.23;12.13;;;;;;;21.68;24.87;94555.78;6158233;28;103376;-55
2022/03/04 12:34:03;;;;;;;13.80;12.67;;;;;;;21.68;24.84;94553.13;6158475;28;103066;-55
2022/03/04 12:37:10;;;;;;;13.50;12.30;;;;;;;21.66;24.81;94555.28;6153064;28;103518;-55
2022/03/04 12:40:12;;;;;;;14.10;13.00;;;;;;;21.68;24.70;94552.34;6180242;28;103366;-55
2022/03/04 12:43:14;;;;;;;14.40;13.20;;;;;;;21.66;24.89;94543.84;6183144;28;102985;-55
2022/03/04 12:46:21;;;;;;;13.10;12.00;;;;;;;21.65;24.87;94545.72;6182703;28;103183;-55
2022/03/04 12:49:28;;;;;;;13.53;12.43;;;;;;;21.65;24.83;94545.72;6177253;28;103948;-55
2022/03/04 12:52:30;;;;;;;14.03;12.90;;;;;;;21.65;24.96;94542.28;6181975;28;104365;-55
2022/03/04 12:55:36;;;;;;;13.63;12.43;;;;;;;21.63;24.74;94547.91;6183633;28;104314;-57
2022/03/04 12:58:46;;;;;;;12.87;11.77;;;;;;;21.63;24.78;94550.59;6178507;28;103896;-55
2022/03/04 13:01:52;;;;;;;12.90;11.83;;;;;;;21.61;24.74;94544.78;6182468;28;102967;-57
2022/03/04 13:04:59;;;;;;;12.90;11.90;;;;;;;21.59;24.78;94550.41;6183140;28;103179;-56
2022/03/04 13:08:01;;;;;;;12.00;11.00;;;;;;;21.56;24.83;94542.28;6182539;28;103289;-56
2022/03/04 13:11:21;;;;;;;12.00;10.90;;;;;;;21.59;24.97;94549.63;6177239;28;103020;-57
2022/03/04 13:14:26;;;;;;;12.27;11.17;;;;;;;21.58;24.93;94546.19;6182257;28;102834;-57
2022/03/04 13:17:28;;;;;;;12.37;11.33;;;;;;;21.58;24.91;94540.88;6182159;28;102958;-56
2022/03/04 13:20:30;;;;;;;12.73;11.73;;;;;;;21.58;24.90;94537.44;6180402;28;103063;-56
2022/03/04 13:23:32;;;;;;;12.83;11.83;;;;;;;21.57;24.89;94541.97;6178199;28;103037;-56
2022/03/04 13:26:34;;;;;;;11.57;10.67;;;;;;;21.57;24.95;94541.19;6181999;28;103077;-56
2022/03/04 13:29:38;;;;;;;11.83;10.83;;;;;;;21.57;24.99;94538.53;6182073;28;103889;-56
2022/03/04 13:32:45;;;;;;;11.93;10.93;;;;;;;21.57;24.97;94541.19;6176799;28;103347;-56
2022/03/04 13:35:50;;;;;;;11.93;11.03;;;;;;;21.56;25.22;94537.75;6182333;28;104015;-57
2022/03/04 13:39:06;;;;;;;11.50;10.50;;;;;;;21.57;24.93;94533.22;6182939;28;103255;-56
2022/03/04 13:42:19;;;;;;;11.40;10.40;;;;;;;21.57;25.11;94535.88;6182504;28;103605;-57
2022/03/04 13:45:46;;;;;;;11.40;10.33;;;;;;;21.57;24.92;94535.88;6176309;28;104051;-56
2022/03/04 13:49:00;;;;;;;11.67;10.77;;;;;;;21.56;24.85;94539.63;6182645;28;103389;-57
2022/03/04 13:52:02;;;;;;;12.10;11.10;;;;;;;21.56;24.83;94531.66;6181489;28;102743;-56
2022/03/04 13:55:04;;;;;;;10.53;9.73;;;;;;;21.55;24.69;94538.06;6176583;28;103351;-55
2022/03/04 13:58:10;;;;;;;11.53;10.53;;;;;;;21.54;25.03;94534.63;6181597;28;103001;-56